Time;durP1;ratioP1;P1;durP2;ratioP2;P2;SDS_P1;SDS_P2;PMS_P1;PMS_P2;Temp;Humidity;BMP_temperature;BMP_pressure;BME280_temperature;BME280_humidity;BME280_pressure;Samples;Min_cycle;Max_cycle;Signal;HPM_P1;HPM_P2
2022/10/17 00:00:04;;;;;;;;;;;;;;;;;;5001437;28;19921;-87
2022/10/17 00:02:30;;;;;;;;;;;;;;;;;;4981796;28;19961;-85
2022/10/17 00:04:55;;;;;;;;;;;;;;;;;;5001598;28;19913;-85
2022/10/17 00:07:21;;;;;;;;;;;;;;;;;;4986450;28;19941;-84
2022/10/17 00:09:46;;;;;;;;;;;;;;;;;;4991043;28;19936;-83
2022/10/17 00:12:11;;;;;;;;;;;;;;;;;;5013661;28;19921;-84
2022/10/17 00:14:37;;;;;;;;;;;;;;;;;;4979740;28;20468;-84
2022/10/17 00:17:02;;;;;;;;;;;;;;;;;;4994768;28;19925;-84
2022/10/17 00:19:27;;;;;;;;;;;;;;;;;;4978316;28;19945;-84
2022/10/17 00:21:53;;;;;;;;;;;;;;;;;;4994454;28;19914;-84
2022/10/17 00:24:18;;;;;;;;;;;;;;;;;;4970112;28;19918;-84
2022/10/17 00:26:44;;;;;;;;;;;;;;;;;;4965007;28;19984;-85
2022/10/17 00:29:09;;;;;;;;;;;;;;;;;;4942694;28;19946;-85
2022/10/17 00:31:34;;;;;;;;;;;;;;;;;;4986479;28;20301;-84
2022/10/17 00:34:00;;;;;;;;;;;;;;;;;;4977501;28;19917;-86
2022/10/17 00:36:27;;;;;;;;;;;;;;;;;;4977995;28;20000;-86
2022/10/17 00:38:52;;;;;;;;;;;;;;;;;;4978725;28;20330;-86
2022/10/17 00:41:18;;;;;;;;;;;;;;;;;;4961635;28;19967;-85
2022/10/17 00:43:43;;;;;;;;;;;;;;;;;;4978487;28;19914;-87
2022/10/17 00:46:08;;;;;;;;;;;;;;;;;;4979315;28;20297;-85
2022/10/17 00:48:33;;;;;;;;;;;;;;;;;;4948594;28;19914;-86
2022/10/17 00:50:59;;;;;;;;;;;;;;;;;;4942832;28;20012;-85
2022/10/17 00:53:24;;;;;;;;;;;;;;;;;;4958732;28;19914;-86
2022/10/17 00:55:50;;;;;;;;;;;;;;;;;;4984407;28;19924;-85
2022/10/17 00:58:15;;;;;;;;;;;;;;;;;;4966425;28;19921;-85
2022/10/17 01:00:40;;;;;;;;;;;;;;;;;;4960803;28;19930;-85
2022/10/17 01:03:06;;;;;;;;;;;;;;;;;;4960522;28;19921;-85
2022/10/17 01:05:31;;;;;;;;;;;;;;;;;;4945590;28;19914;-86
2022/10/17 01:07:57;;;;;;;;;;;;;;;;;;4960523;28;19918;-86
2022/10/17 01:10:22;;;;;;;;;;;;;;;;;;4961056;28;19936;-86
2022/10/17 01:12:47;;;;;;;;;;;;;;;;;;4975988;28;19914;-85
2022/10/17 01:15:12;;;;;;;;;;;;;;;;;;4959883;28;19914;-85
2022/10/17 01:17:38;;;;;;;;;;;;;;;;;;4976365;28;19921;-85
2022/10/17 01:20:04;;;;;;;;;;;;;;;;;;4959010;28;19941;-85
2022/10/17 01:22:29;;;;;;;;;;;;;;;;;;4960833;28;20282;-85
2022/10/17 01:24:55;;;;;;;;;;;;;;;;;;4957756;28;19918;-85
2022/10/17 01:27:20;;;;;;;;;;;;;;;;;;4957973;28;19918;-84
2022/10/17 01:29:46;;;;;;;;;;;;;;;;;;4957973;28;20267;-84
2022/10/17 01:32:11;;;;;;;;;;;;;;;;;;4957346;28;19914;-85
2022/10/17 01:34:37;;;;;;;;;;;;;;;;;;4940773;28;20408;-86
2022/10/17 01:37:02;;;;;;;;;;;;;;;;;;4974391;28;19935;-85
2022/10/17 01:39:27;;;;;;;;;;;;;;;;;;4956929;28;20310;-85
2022/10/17 01:41:53;;;;;;;;;;;;;;;;;;4943436;28;19914;-85
2022/10/17 01:44:18;;;;;;;;;;;;;;;;;;4975896;28;19921;-85
2022/10/17 01:46:43;;;;;;;;;;;;;;;;;;4993386;28;20468;-85
2022/10/17 01:49:09;;;;;;;;;;;;;;;;;;4976236;28;19917;-84
2022/10/17 01:51:34;;;;;;;;;;;;;;;;;;4993464;28;19914;-85
2022/10/17 01:53:59;;;;;;;;;;;;;;;;;;4993105;28;20042;-85
2022/10/17 01:56:25;;;;;;;;;;;;;;;;;;4960033;28;19914;-85
2022/10/17 01:58:50;;;;;;;;;;;;;;;;;;4955637;28;19910;-85
2022/10/17 02:01:16;;;;;;;;;;;;;;;;;;4976372;28;19957;-86
2022/10/17 02:03:42;;;;;;;;;;;;;;;;;;4975837;28;19949;-87
2022/10/17 02:06:07;;;;;;;;;;;;;;;;;;4976218;28;20020;-86
2022/10/17 02:08:33;;;;;;;;;;;;;;;;;;4960437;28;19921;-86
2022/10/17 02:10:59;;;;;;;;;;;;;;;;;;4976539;28;19917;-86
2022/10/17 02:13:24;;;;;;;;;;;;;;;;;;4976036;28;19921;-85
2022/10/17 02:15:51;;;;;;;;;;;;;;;;;;4989907;28;19961;-86
2022/10/17 02:18:16;;;;;;;;;;;;;;;;;;4977209;28;20012;-86
2022/10/17 02:20:42;;;;;;;;;;;;;;;;;;4977016;28;20361;-85
2022/10/17 02:23:07;;;;;;;;;;;;;;;;;;4976306;28;20385;-86
2022/10/17 02:25:32;;;;;;;;;;;;;;;;;;4994202;28;19922;-86
2022/10/17 02:27:58;;;;;;;;;;;;;;;;;;4977020;28;19918;-85
2022/10/17 02:30:23;;;;;;;;;;;;;;;;;;4976670;28;19921;-86
2022/10/17 02:32:49;;;;;;;;;;;;;;;;;;4988366;28;19921;-85
2022/10/17 02:35:14;;;;;;;;;;;;;;;;;;4979285;28;19917;-85
2022/10/17 02:37:39;;;;;;;;;;;;;;;;;;4948069;28;20013;-86
2022/10/17 02:40:05;;;;;;;;;;;;;;;;;;4980199;28;19914;-87
2022/10/17 02:42:30;;;;;;;;;;;;;;;;;;4963880;28;19965;-85
2022/10/17 02:44:55;;;;;;;;;;;;;;;;;;4948319;28;19913;-84
2022/10/17 02:47:21;;;;;;;;;;;;;;;;;;4997607;28;19924;-87
2022/10/17 02:49:46;;;;;;;;;;;;;;;;;;4975764;28;20348;-87
2022/10/17 02:52:12;;;;;;;;;;;;;;;;;;4945775;28;19918;-86
2022/10/17 02:54:37;;;;;;;;;;;;;;;;;;4962270;28;20305;-85
2022/10/17 02:57:03;;;;;;;;;;;;;;;;;;4962570;28;19914;-86
2022/10/17 02:59:28;;;;;;;;;;;;;;;;;;4949166;28;19986;-85
2022/10/17 03:01:53;;;;;;;;;;;;;;;;;;4989574;28;20371;-86
2022/10/17 03:04:19;;;;;;;;;;;;;;;;;;4970485;28;19918;-86
2022/10/17 03:06:44;;;;;;;;;;;;;;;;;;4946850;28;19986;-86
2022/10/17 03:09:09;;;;;;;;;;;;;;;;;;4968456;28;19914;-86
2022/10/17 03:11:35;;;;;;;;;;;;;;;;;;4962040;28;19937;-87
2022/10/17 03:14:00;;;;;;;;;;;;;;;;;;4961853;28;19921;-87
2022/10/17 03:16:26;;;;;;;;;;;;;;;;;;4960787;28;19914;-87
2022/10/17 03:18:51;;;;;;;;;;;;;;;;;;4961365;28;19921;-87
2022/10/17 03:21:16;;;;;;;;;;;;;;;;;;4960494;28;19914;-85
2022/10/17 03:23:42;;;;;;;;;;;;;;;;;;4976298;28;19914;-86
2022/10/17 03:26:07;;;;;;;;;;;;;;;;;;4962828;28;19925;-86
2022/10/17 03:28:33;;;;;;;;;;;;;;;;;;4960226;28;19914;-87
2022/10/17 03:30:59;;;;;;;;;;;;;;;;;;4960225;28;19914;-86
2022/10/17 03:33:25;;;;;;;;;;;;;;;;;;4943885;28;19956;-88
2022/10/17 03:35:50;;;;;;;;;;;;;;;;;;4977697;28;19918;-86
2022/10/17 03:38:16;;;;;;;;;;;;;;;;;;4960200;28;19914;-86
2022/10/17 03:40:41;;;;;;;;;;;;;;;;;;4944903;28;19910;-85
2022/10/17 03:43:10;;;;;;;;;;;;;;;;;;4957798;28;19968;-85
2022/10/17 03:45:35;;;;;;;;;;;;;;;;;;4982851;28;19913;-86
2022/10/17 03:48:01;;;;;;;;;;;;;;;;;;4984363;28;19918;-86
2022/10/17 03:50:26;;;;;;;;;;;;;;;;;;4978764;28;20005;-86
2022/10/17 03:52:51;;;;;;;;;;;;;;;;;;4977876;28;20300;-86
2022/10/17 03:55:17;;;;;;;;;;;;;;;;;;4978379;28;19914;-86
2022/10/17 03:57:43;;;;;;;;;;;;;;;;;;4978624;28;20406;-86
2022/10/17 04:00:08;;;;;;;;;;;;;;;;;;4957726;28;20274;-87
2022/10/17 04:02:39;;;;;;;;;;;;;;;;;;4995325;28;19941;-86
2022/10/17 04:05:04;;;;;;;;;;;;;;;;;;4990688;28;19914;-85
2022/10/17 04:07:30;;;;;;;;;;;;;;;;;;4971258;28;20012;-85
2022/10/17 04:09:56;;;;;;;;;;;;;;;;;;4976645;28;19936;-87
2022/10/17 04:12:21;;;;;;;;;;;;;;;;;;4971337;28;19918;-87
2022/10/17 04:14:47;;;;;;;;;;;;;;;;;;4959340;28;19914;-86
2022/10/17 04:17:13;;;;;;;;;;;;;;;;;;4975595;28;20381;-87
2022/10/17 04:19:38;;;;;;;;;;;;;;;;;;4975809;28;19964;-86
2022/10/17 04:22:04;;;;;;;;;;;;;;;;;;4959792;28;19914;-87
2022/10/17 04:24:33;;;;;;;;;;;;;;;;;;4974093;28;20383;-88
2022/10/17 04:27:10;;;;;;;;;;;;;;;;;;4974599;28;19922;-87
2022/10/17 04:29:39;;;;;;;;;;;;;;;;;;4980311;28;19914;-87
2022/10/17 04:32:10;;;;;;;;;;;;;;;;;;4977672;28;19913;-88
2022/10/17 04:35:01;;;;;;;;;;;;;;;;;;4981690;28;19914;-87
2022/10/17 04:37:26;;;;;;;;;;;;;;;;;;4977843;28;19921;-86
2022/10/17 04:39:53;;;;;;;;;;;;;;;;;;4977561;28;19917;-85
2022/10/17 04:42:18;;;;;;;;;;;;;;;;;;4977334;28;19937;-87
2022/10/17 04:44:44;;;;;;;;;;;;;;;;;;4977111;28;19914;-88
2022/10/17 04:47:11;;;;;;;;;;;;;;;;;;4956511;28;19950;-88
2022/10/17 04:49:37;;;;;;;;;;;;;;;;;;4977190;28;20289;-87
2022/10/17 04:52:07;;;;;;;;;;;;;;;;;;4977170;28;19914;-88
2022/10/17 04:54:39;;;;;;;;;;;;;;;;;;4977432;28;19914;-87
2022/10/17 04:57:07;;;;;;;;;;;;;;;;;;4976397;28;19914;-87
2022/10/17 04:59:33;;;;;;;;;;;;;;;;;;4977264;28;19941;-88
2022/10/17 05:02:11;;;;;;;;;;;;;;;;;;4977528;28;19921;-87
2022/10/17 05:04:36;;;;;;;;;;;;;;;;;;4959238;28;20270;-87
2022/10/17 05:07:02;;;;;;;;;;;;;;;;;;4948556;28;19972;-85
2022/10/17 05:09:42;;;;;;;;;;;;;;;;;;4954187;28;19918;-85
2022/10/17 05:12:07;;;;;;;;;;;;;;;;;;4958744;28;20026;-87
2022/10/17 05:14:32;;;;;;;;;;;;;;;;;;4960456;28;19933;-86
2022/10/17 05:16:58;;;;;;;;;;;;;;;;;;4963113;28;20348;-86
2022/10/17 05:19:24;;;;;;;;;;;;;;;;;;4927722;28;20461;-86
2022/10/17 05:21:49;;;;;;;;;;;;;;;;;;4962415;28;19918;-91
2022/10/17 05:24:15;;;;;;;;;;;;;;;;;;4959093;28;19942;-89
2022/10/17 05:26:40;;;;;;;;;;;;;;;;;;4975170;28;20317;-86
2022/10/17 05:29:06;;;;;;;;;;;;;;;;;;4974135;28;19914;-88
2022/10/17 05:31:35;;;;;;;;;;;;;;;;;;4974244;28;19914;-86
2022/10/17 05:34:01;;;;;;;;;;;;;;;;;;4940800;28;19918;-88
2022/10/17 05:36:27;;;;;;;;;;;;;;;;;;4959537;28;19921;-87
2022/10/17 05:38:52;;;;;;;;;;;;;;;;;;4941612;28;20001;-87
2022/10/17 05:41:18;;;;;;;;;;;;;;;;;;4974585;28;20348;-86
2022/10/17 05:43:43;;;;;;;;;;;;;;;;;;4957310;28;19970;-86
2022/10/17 05:46:10;;;;;;;;;;;;;;;;;;4926036;28;19922;-87
2022/10/17 05:48:35;;;;;;;;;;;;;;;;;;4957539;28;19925;-86
2022/10/17 05:51:01;;;;;;;;;;;;;;;;;;4974905;28;19961;-84
2022/10/17 05:53:26;;;;;;;;;;;;;;;;;;4944056;28;19914;-86
2022/10/17 05:55:52;;;;;;;;;;;;;;;;;;4963735;28;20414;-85
2022/10/17 05:58:18;;;;;;;;;;;;;;;;;;4986389;28;19952;-83
2022/10/17 06:00:45;;;;;;;;;;;;;;;;;;4995079;28;19921;-83
2022/10/17 06:03:11;;;;;;;;;;;;;;;;;;4995404;28;19918;-83
2022/10/17 06:05:36;;;;;;;;;;;;;;;;;;4993574;28;19918;-82
2022/10/17 06:08:02;;;;;;;;;;;;;;;;;;4994751;28;19928;-83
2022/10/17 06:10:28;;;;;;;;;;;;;;;;;;4995038;28;19917;-82
2022/10/17 06:12:55;;;;;;;;;;;;;;;;;;4988040;28;19967;-83
2022/10/17 06:15:20;;;;;;;;;;;;;;;;;;4984146;28;19914;-85
2022/10/17 06:17:51;;;;;;;;;;;;;;;;;;4983882;28;20015;-84
2022/10/17 06:20:17;;;;;;;;;;;;;;;;;;5003512;28;19918;-85
2022/10/17 06:22:42;;;;;;;;;;;;;;;;;;4979837;28;20017;-85
2022/10/17 06:25:13;;;;;;;;;;;;;;;;;;4977633;28;19917;-86
2022/10/17 06:27:39;;;;;;;;;;;;;;;;;;4976548;28;19968;-85
2022/10/17 06:30:04;;;;;;;;;;;;;;;;;;4954780;28;20406;-86
2022/10/17 06:32:30;;;;;;;;;;;;;;;;;;4975867;28;19921;-85
2022/10/17 06:34:55;;;;;;;;;;;;;;;;;;4975631;28;19914;-85
2022/10/17 06:37:21;;;;;;;;;;;;;;;;;;4993561;28;19913;-85
2022/10/17 06:39:46;;;;;;;;;;;;;;;;;;4975615;28;19922;-86
2022/10/17 06:42:15;;;;;;;;;;;;;;;;;;4975726;28;20060;-84
2022/10/17 06:45:04;;;;;;;;;;;;;;;;;;4975535;28;19914;-84
2022/10/17 06:48:08;;;;;;;;;;;;;;;;;;4953358;28;19918;-84
2022/10/17 06:50:50;;;;;;;;;;;;;;;;;;4993441;28;19983;-85
2022/10/17 06:53:26;;;;;;;;;;;;;;;;;;4960755;28;19913;-84
2022/10/17 06:56:26;;;;;;;;;;;;;;;;;;4975624;28;20439;-85
2022/10/17 06:59:07;;;;;;;;;;;;;;;;;;4975417;28;19913;-85
2022/10/17 07:01:34;;;;;;;;;;;;;;;;;;4992472;28;19917;-85
2022/10/17 07:04:01;;;;;;;;;;;;;;;;;;4975739;28;19918;-84
2022/10/17 07:06:27;;;;;;;;;;;;;;;;;;4955685;28;20292;-85
2022/10/17 07:08:55;;;;;;;;;;;;;;;;;;4975698;28;20377;-83
2022/10/17 07:11:20;;;;;;;;;;;;;;;;;;4978395;28;20044;-82
2022/10/17 07:13:48;;;;;;;;;;;;;;;;;;4969033;28;19945;-82
2022/10/17 07:16:13;;;;;;;;;;;;;;;;;;5000752;28;20292;-82
2022/10/17 07:18:39;;;;;;;;;;;;;;;;;;4975287;28;19917;-81
2022/10/17 07:21:05;;;;;;;;;;;;;;;;;;4977550;28;20300;-83
2022/10/17 07:23:30;;;;;;;;;;;;;;;;;;4957576;28;20382;-83
2022/10/17 07:25:56;;;;;;;;;;;;;;;;;;4962183;28;20428;-82
2022/10/17 07:28:21;;;;;;;;;;;;;;;;;;4962131;28;19914;-86
2022/10/17 07:30:47;;;;;;;;;;;;;;;;;;4962375;28;19914;-83
2022/10/17 07:33:12;;;;;;;;;;;;;;;;;;4977813;28;19917;-83
2022/10/17 07:35:39;;;;;;;;;;;;;;;;;;4978397;28;20008;-85
2022/10/17 07:38:05;;;;;;;;;;;;;;;;;;4978139;28;19920;-84
2022/10/17 07:40:30;;;;;;;;;;;;;;;;;;4990850;28;20008;-84
2022/10/17 07:42:55;;;;;;;;;;;;;;;;;;4961745;28;19963;-85
2022/10/17 07:45:22;;;;;;;;;;;;;;;;;;4978233;28;19929;-84
2022/10/17 07:47:47;;;;;;;;;;;;;;;;;;4978219;28;19925;-85
2022/10/17 07:50:14;;;;;;;;;;;;;;;;;;4978270;28;19949;-85
2022/10/17 07:52:42;;;;;;;;;;;;;;;;;;4977714;28;19929;-85
2022/10/17 07:55:07;;;;;;;;;;;;;;;;;;4996017;28;19913;-85
2022/10/17 07:57:32;;;;;;;;;;;;;;;;;;4994205;28;19914;-85
2022/10/17 07:59:58;;;;;;;;;;;;;;;;;;4978374;28;20386;-85
2022/10/17 08:02:23;;;;;;;;;;;;;;;;;;4975684;28;19914;-85
2022/10/17 08:04:48;;;;;;;;;;;;;;;;;;4975847;28;19957;-85
2022/10/17 08:07:15;;;;;;;;;;;;;;;;;;4976084;28;19918;-85
2022/10/17 08:09:40;;;;;;;;;;;;;;;;;;4975873;28;20013;-82
2022/10/17 08:12:06;;;;;;;;;;;;;;;;;;4975703;28;19949;-85
2022/10/17 08:14:31;;;;;;;;;;;;;;;;;;4978606;28;21003;-85
2022/10/17 08:16:57;;;;;;;;;;;;;;;;;;4989653;28;20405;-83
2022/10/17 08:19:23;;;;;;;;;;;;;;;;;;4998965;28;19997;-85
2022/10/17 08:21:49;;;;;;;;;;;;;;;;;;4974014;28;19921;-84
2022/10/17 08:24:14;;;;;;;;;;;;;;;;;;4991377;28;19925;-83
2022/10/17 08:26:39;;;;;;;;;;;;;;;;;;4986510;28;19960;-83
2022/10/17 08:29:05;;;;;;;;;;;;;;;;;;4978359;28;20391;-79
2022/10/17 08:31:30;;;;;;;;;;;;;;;;;;4974020;28;19914;-73
2022/10/17 08:33:55;;;;;;;;;;;;;;;;;;4993390;28;19961;-76
2022/10/17 08:36:21;;;;;;;;;;;;;;;;;;4994011;28;19914;-74
2022/10/17 08:38:46;;;;;;;;;;;;;;;;;;4993598;28;19921;-75
2022/10/17 08:41:11;;;;;;;;;;;;;;;;;;4993751;28;19918;-74
2022/10/17 08:43:37;;;;;;;;;;;;;;;;;;4993165;28;19914;-74
2022/10/17 08:46:02;;;;;;;;;;;;;;;;;;4984698;28;19914;-76
2022/10/17 08:48:28;;;;;;;;;;;;;;;;;;4993799;28;20342;-76
2022/10/17 08:50:53;;;;;;;;;;;;;;;;;;4977728;28;19920;-74
2022/10/17 08:53:18;;;;;;;;;;;;;;;;;;5035497;23;19929;-74
2022/10/17 08:55:44;;;;;;;;;;;;;;;;;;5044399;28;19921;-74
2022/10/17 08:58:09;;;;;;;;;;;;;;;;;;5033845;28;20003;-73
2022/10/17 09:00:34;;;;;;;;;;;;;;;;;;5049650;28;20008;-73
2022/10/17 09:03:00;;;;;;;;;;;;;;;;;;5037310;28;19999;-74
2022/10/17 09:05:25;;;;;;;;;;;;;;;;;;5026985;28;19913;-74
2022/10/17 09:07:50;;;;;;;;;;;;;;;;;;5033804;28;19917;-74
2022/10/17 09:10:16;;;;;;;;;;;;;;;;;;5049027;28;19912;-75
2022/10/17 09:12:41;;;;;;;;;;;;;;;;;;5038190;28;19921;-74
2022/10/17 09:15:07;;;;;;;;;;;;;;;;;;5032422;28;20360;-74
2022/10/17 09:17:32;;;;;;;;;;;;;;;;;;5038697;28;19959;-74
2022/10/17 09:19:58;;;;;;;;;;;;;;;;;;5039087;28;20411;-74
2022/10/17 09:22:23;;;;;;;;;;;;;;;;;;5030513;28;19921;-74
2022/10/17 09:24:48;;;;;;;;;;;;;;;;;;5023897;28;19991;-74
2022/10/17 09:27:14;;;;;;;;;;;;;;;;;;5024569;28;20156;-74
2022/10/17 09:29:40;;;;;;;;;;;;;;;;;;5037905;28;20055;-74
2022/10/17 09:32:05;;;;;;;;;;;;;;;;;;5014432;28;20380;-74
2022/10/17 09:34:30;;;;;;;;;;;;;;;;;;5036626;28;19995;-74
2022/10/17 09:36:56;;;;;;;;;;;;;;;;;;5006492;28;19987;-75
2022/10/17 09:39:21;;;;;;;;;;;;;;;;;;5022664;28;20379;-75
2022/10/17 09:41:47;;;;;;;;;;;;;;;;;;5014437;28;20464;-72
2022/10/17 09:44:12;;;;;;;;;;;;;;;;;;5047617;28;19919;-73
2022/10/17 09:46:37;;;;;;;;;;;;;;;;;;5019900;28;20376;-73
2022/10/17 09:49:03;;;;;;;;;;;;;;;;;;5042862;28;19913;-74
2022/10/17 09:51:28;;;;;;;;;;;;;;;;;;5016268;28;19917;-75
2022/10/17 09:53:53;;;;;;;;;;;;;;;;;;5047485;28;20380;-75
2022/10/17 09:56:19;;;;;;;;;;;;;;;;;;5035438;28;20299;-74
2022/10/17 09:58:44;;;;;;;;;;;;;;;;;;5045113;28;20488;-73
2022/10/17 10:01:10;;;;;;;;;;;;;;;;;;5041782;28;20395;-73
2022/10/17 10:03:35;;;;;;;;;;;;;;;;;;5020049;28;20269;-74
2022/10/17 10:06:00;;;;;;;;;;;;;;;;;;5030434;28;19913;-74
2022/10/17 10:08:26;;;;;;;;;;;;;;;;;;5035621;28;19919;-74
2022/10/17 10:10:51;;;;;;;;;;;;;;;;;;5026521;28;19944;-74
2022/10/17 10:13:16;;;;;;;;;;;;;;;;;;5037206;28;19921;-73
2022/10/17 10:15:42;;;;;;;;;;;;;;;;;;5023579;28;19914;-74
2022/10/17 10:18:07;;;;;;;;;;;;;;;;;;5048002;28;19954;-75
2022/10/17 10:20:33;;;;;;;;;;;;;;;;;;5021814;28;19964;-74
2022/10/17 10:22:58;;;;;;;;;;;;;;;;;;5005413;28;19923;-74
2022/10/17 10:25:24;;;;;;;;;;;;;;;;;;5039586;28;19920;-72
2022/10/17 10:27:49;;;;;;;;;;;;;;;;;;5020991;28;20268;-73
2022/10/17 10:30:14;;;;;;;;;;;;;;;;;;5046462;28;19913;-74
2022/10/17 10:32:40;;;;;;;;;;;;;;;;;;5015866;28;20283;-73
2022/10/17 10:35:05;;;;;;;;;;;;;;;;;;5040857;28;20394;-73
2022/10/17 10:37:31;;;;;;;;;;;;;;;;;;5027358;28;19921;-74
2022/10/17 10:39:56;;;;;;;;;;;;;;;;;;5041480;28;19913;-74
2022/10/17 10:42:22;;;;;;;;;;;;;;;;;;5047107;28;20641;-74
2022/10/17 10:44:47;;;;;;;;;;;;;;;;;;5000043;28;19920;-74
2022/10/17 10:47:12;;;;;;;;;;;;;;;;;;5041041;28;20418;-74
2022/10/17 10:49:38;;;;;;;;;;;;;;;;;;5020240;28;20047;-74
2022/10/17 10:52:03;;;;;;;;;;;;;;;;;;5047660;28;19939;-73
2022/10/17 10:54:29;;;;;;;;;;;;;;;;;;5017311;28;19924;-76
2022/10/17 10:56:55;;;;;;;;;;;;;;;;;;5031892;28;19920;-75
2022/10/17 10:59:20;;;;;;;;;;;;;;;;;;5026306;28;20392;-75
2022/10/17 11:01:46;;;;;;;;;;;;;;;;;;5049500;28;20015;-73
2022/10/17 11:04:11;;;;;;;;;;;;;;;;;;5037928;28;19913;-74
2022/10/17 11:06:36;;;;;;;;;;;;;;;;;;5049960;28;19924;-74
2022/10/17 11:09:02;;;;;;;;;;;;;;;;;;5025883;28;20340;-74
2022/10/17 11:11:27;;;;;;;;;;;;;;;;;;5017243;28;20417;-74
2022/10/17 11:13:52;;;;;;;;;;;;;;;;;;5030174;28;19944;-73
2022/10/17 11:16:18;;;;;;;;;;;;;;;;;;5053342;28;19916;-74
2022/10/17 11:18:44;;;;;;;;;;;;;;;;;;5008194;28;19912;-73
2022/10/17 11:21:09;;;;;;;;;;;;;;;;;;5046106;28;19913;-76
2022/10/17 11:23:34;;;;;;;;;;;;;;;;;;5029844;28;19912;-75
2022/10/17 11:26:00;;;;;;;;;;;;;;;;;;5038489;28;19920;-75
2022/10/17 11:28:25;;;;;;;;;;;;;;;;;;5000545;28;20272;-75
2022/10/17 11:30:50;;;;;;;;;;;;;;;;;;5041678;28;19913;-76
2022/10/17 11:33:16;;;;;;;;;;;;;;;;;;5035376;28;19999;-73
2022/10/17 11:35:42;;;;;;;;;;;;;;;;;;5041269;28;19917;-75
2022/10/17 11:38:07;;;;;;;;;;;;;;;;;;5033972;28;19913;-73
2022/10/17 11:40:33;;;;;;;;;;;;;;;;;;5022143;28;19913;-74
2022/10/17 11:42:58;;;;;;;;;;;;;;;;;;5046609;28;19947;-75
2022/10/17 11:45:23;;;;;;;;;;;;;;;;;;5029220;28;19913;-74
2022/10/17 11:47:49;;;;;;;;;;;;;;;;;;5022494;28;20008;-75
2022/10/17 11:50:14;;;;;;;;;;;;;;;;;;5033648;28;19920;-72
2022/10/17 11:52:39;;;;;;;;;;;;;;;;;;5039761;28;19923;-75
2022/10/17 11:55:06;;;;;;;;;;;;;;;;;;5046031;28;20525;-74
2022/10/17 11:57:33;;;;;;;;;;;;;;;;;;5047296;28;19992;-75
2022/10/17 11:59:58;;;;;;;;;;;;;;;;;;5020420;28;19917;-74
2022/10/17 12:02:24;;;;;;;;;;;;;;;;;;5032457;28;19978;-75
2022/10/17 12:04:49;;;;;;;;;;;;;;;;;;5023140;28;19920;-75
2022/10/17 12:07:14;;;;;;;;;;;;;;;;;;5026181;28;19917;-76
2022/10/17 12:09:40;;;;;;;;;;;;;;;;;;5030399;28;19951;-75
2022/10/17 12:12:05;;;;;;;;;;;;;;;;;;5020029;28;19964;-75
2022/10/17 12:14:31;;;;;;;;;;;;;;;;;;5032105;28;19913;-76
2022/10/17 12:16:56;;;;;;;;;;;;;;;;;;5044538;28;19913;-75
2022/10/17 12:19:21;;;;;;;;;;;;;;;;;;5025938;28;19917;-76
2022/10/17 12:21:47;;;;;;;;;;;;;;;;;;5030920;28;20039;-76
2022/10/17 12:24:12;;;;;;;;;;;;;;;;;;5036650;28;19913;-76
2022/10/17 12:26:37;;;;;;;;;;;;;;;;;;5030675;28;20281;-76
2022/10/17 12:29:03;;;;;;;;;;;;;;;;;;5024458;28;19912;-76
2022/10/17 12:31:28;;;;;;;;;;;;;;;;;;5023495;28;20261;-75
2022/10/17 12:33:54;;;;;;;;;;;;;;;;;;5048341;28;19936;-76
2022/10/17 12:36:22;;;;;;;;;;;;;;;;;;5036922;28;20005;-77
2022/10/17 12:38:47;;;;;;;;;;;;;;;;;;5028887;28;20022;-76
2022/10/17 12:41:12;;;;;;;;;;;;;;;;;;5025330;28;20625;-76
2022/10/17 12:43:38;;;;;;;;;;;;;;;;;;5039302;28;19917;-77
2022/10/17 12:46:03;;;;;;;;;;;;;;;;;;5049664;28;19913;-76
2022/10/17 12:48:28;;;;;;;;;;;;;;;;;;5019358;28;20414;-76
2022/10/17 12:50:54;;;;;;;;;;;;;;;;;;5028123;28;20292;-76
2022/10/17 12:53:19;;;;;;;;;;;;;;;;;;5043374;28;19916;-76
2022/10/17 12:55:45;;;;;;;;;;;;;;;;;;5018930;28;19963;-74
2022/10/17 12:58:10;;;;;;;;;;;;;;;;;;5018876;28;19913;-75
2022/10/17 13:00:35;;;;;;;;;;;;;;;;;;5015218;28;19975;-74
2022/10/17 13:03:01;;;;;;;;;;;;;;;;;;5003674;28;19913;-76
2022/10/17 13:05:26;;;;;;;;;;;;;;;;;;5044673;28;20289;-76
2022/10/17 13:07:52;;;;;;;;;;;;;;;;;;5037596;28;19925;-76
2022/10/17 13:10:17;;;;;;;;;;;;;;;;;;5031796;28;19919;-83
2022/10/17 13:12:43;;;;;;;;;;;;;;;;;;5027160;28;19913;-75
2022/10/17 13:15:08;;;;;;;;;;;;;;;;;;5017707;28;20407;-73
2022/10/17 13:17:33;;;;;;;;;;;;;;;;;;5011595;28;19989;-75
2022/10/17 13:19:59;;;;;;;;;;;;;;;;;;5051545;28;20399;-75
2022/10/17 13:22:24;;;;;;;;;;;;;;;;;;5038654;28;19913;-74
2022/10/17 13:24:50;;;;;;;;;;;;;;;;;;5047330;28;20376;-75
2022/10/17 13:27:15;;;;;;;;;;;;;;;;;;5025061;28;19943;-75
2022/10/17 13:29:40;;;;;;;;;;;;;;;;;;5020910;28;20199;-76
2022/10/17 13:32:06;;;;;;;;;;;;;;;;;;5048229;28;19975;-76
2022/10/17 13:34:31;;;;;;;;;;;;;;;;;;5030105;28;20383;-75
2022/10/17 13:36:56;;;;;;;;;;;;;;;;;;5040191;28;20347;-73
2022/10/17 13:39:22;;;;;;;;;;;;;;;;;;5041594;28;19994;-75
2022/10/17 13:41:47;;;;;;;;;;;;;;;;;;5047149;28;19908;-75
2022/10/17 13:44:13;;;;;;;;;;;;;;;;;;5035189;28;19913;-76
2022/10/17 13:46:38;;;;;;;;;;;;;;;;;;5028924;28;19921;-76
2022/10/17 13:49:03;;;;;;;;;;;;;;;;;;4990502;28;20337;-76
2022/10/17 13:51:29;;;;;;;;;;;;;;;;;;5040506;28;19920;-76
2022/10/17 13:53:54;;;;;;;;;;;;;;;;;;5046941;28;20035;-75
2022/10/17 13:56:19;;;;;;;;;;;;;;;;;;5016902;28;19924;-76
2022/10/17 13:58:45;;;;;;;;;;;;;;;;;;5028182;28;19955;-75
2022/10/17 14:01:10;;;;;;;;;;;;;;;;;;5041790;28;20036;-77
2022/10/17 14:03:38;;;;;;;;;;;;;;;;;;5020989;28;19920;-75
2022/10/17 14:06:03;;;;;;;;;;;;;;;;;;5000094;28;19913;-80
2022/10/17 14:08:28;;;;;;;;;;;;;;;;;;5015021;28;19921;-81
2022/10/17 14:10:54;;;;;;;;;;;;;;;;;;5015388;28;20233;-82
2022/10/17 14:13:19;;;;;;;;;;;;;;;;;;5032579;28;19913;-82
2022/10/17 14:15:45;;;;;;;;;;;;;;;;;;5015030;28;20356;-81
2022/10/17 14:18:10;;;;;;;;;;;;;;;;;;5015106;28;19956;-81
2022/10/17 14:20:36;;;;;;;;;;;;;;;;;;5014676;28;20008;-81
2022/10/17 14:23:01;;;;;;;;;;;;;;;;;;4999130;28;20467;-79
2022/10/17 14:25:27;;;;;;;;;;;;;;;;;;5034197;28;20007;-81
2022/10/17 14:27:54;;;;;;;;;;;;;;;;;;5034480;28;20349;-80
2022/10/17 14:30:19;;;;;;;;;;;;;;;;;;5023240;28;20013;-80
2022/10/17 14:32:45;;;;;;;;;;;;;;;;;;5040538;28;19952;-79
2022/10/17 14:35:10;;;;;;;;;;;;;;;;;;5024616;28;20380;-80
2022/10/17 14:37:36;;;;;;;;;;;;;;;;;;5040946;28;19920;-79
2022/10/17 14:40:01;;;;;;;;;;;;;;;;;;5038914;28;20628;-79
2022/10/17 14:42:26;;;;;;;;;;;;;;;;;;5058292;28;19913;-79
2022/10/17 14:44:52;;;;;;;;;;;;;;;;;;5058379;28;20007;-79
2022/10/17 14:47:17;;;;;;;;;;;;;;;;;;5058330;28;19965;-79
2022/10/17 14:49:42;;;;;;;;;;;;;;;;;;5058602;28;20065;-79
2022/10/17 14:52:08;;;;;;;;;;;;;;;;;;5040610;28;19919;-81
2022/10/17 14:54:33;;;;;;;;;;;;;;;;;;5015154;23;19929;-82
2022/10/17 14:56:59;;;;;;;;;;;;;;;;;;4966745;28;20341;-82
2022/10/17 14:59:25;;;;;;;;;;;;;;;;;;4961921;28;19914;-82
2022/10/17 15:01:50;;;;;;;;;;;;;;;;;;4978422;28;20348;-83
2022/10/17 15:04:16;;;;;;;;;;;;;;;;;;4977919;28;19921;-82
2022/10/17 15:06:41;;;;;;;;;;;;;;;;;;4978023;28;20428;-82
2022/10/17 15:09:07;;;;;;;;;;;;;;;;;;4962205;28;19915;-82
2022/10/17 15:11:32;;;;;;;;;;;;;;;;;;4962278;28;19990;-82
2022/10/17 15:13:58;;;;;;;;;;;;;;;;;;4962112;28;19922;-83
2022/10/17 15:16:23;;;;;;;;;;;;;;;;;;4980112;28;19925;-81
2022/10/17 15:18:50;;;;;;;;;;;;;;;;;;4997244;28;19919;-81
2022/10/17 15:21:15;;;;;;;;;;;;;;;;;;4981024;28;20297;-82
2022/10/17 15:23:41;;;;;;;;;;;;;;;;;;4997863;28;20393;-82
2022/10/17 15:26:07;;;;;;;;;;;;;;;;;;4997340;28;19914;-82
2022/10/17 15:28:33;;;;;;;;;;;;;;;;;;4997053;28;20293;-81
2022/10/17 15:30:58;;;;;;;;;;;;;;;;;;4981118;28;19913;-81
2022/10/17 15:33:23;;;;;;;;;;;;;;;;;;4972700;28;19925;-84
2022/10/17 15:35:49;;;;;;;;;;;;;;;;;;4961649;28;20390;-82
2022/10/17 15:38:14;;;;;;;;;;;;;;;;;;4961312;28;19918;-82
2022/10/17 15:40:40;;;;;;;;;;;;;;;;;;4976590;28;19918;-83
2022/10/17 15:43:05;;;;;;;;;;;;;;;;;;4974241;28;20358;-83
2022/10/17 15:45:31;;;;;;;;;;;;;;;;;;4958402;28;19914;-82
2022/10/17 15:47:57;;;;;;;;;;;;;;;;;;4942480;28;19980;-82
2022/10/17 15:50:22;;;;;;;;;;;;;;;;;;4957263;28;19914;-83
2022/10/17 15:52:49;;;;;;;;;;;;;;;;;;4973549;28;20282;-82
2022/10/17 15:55:15;;;;;;;;;;;;;;;;;;4974214;28;19965;-82
2022/10/17 15:57:40;;;;;;;;;;;;;;;;;;4958125;28;19915;-82
2022/10/17 16:00:06;;;;;;;;;;;;;;;;;;4975432;28;20008;-82
2022/10/17 16:02:34;;;;;;;;;;;;;;;;;;4973505;28;19918;-83
2022/10/17 16:05:00;;;;;;;;;;;;;;;;;;4976060;28;19914;-83
2022/10/17 16:07:25;;;;;;;;;;;;;;;;;;4991316;28;19924;-83
2022/10/17 16:09:51;;;;;;;;;;;;;;;;;;4977667;28;20285;-82
2022/10/17 16:12:16;;;;;;;;;;;;;;;;;;4994589;28;19914;-83
2022/10/17 16:14:42;;;;;;;;;;;;;;;;;;4993469;28;20350;-83
2022/10/17 16:17:07;;;;;;;;;;;;;;;;;;4961311;28;19978;-83
2022/10/17 16:19:33;;;;;;;;;;;;;;;;;;4977308;28;19914;-82
2022/10/17 16:22:00;;;;;;;;;;;;;;;;;;4991455;28;19918;-83
2022/10/17 16:24:25;;;;;;;;;;;;;;;;;;4973422;28;20001;-82
2022/10/17 16:26:51;;;;;;;;;;;;;;;;;;4957727;28;20353;-82
2022/10/17 16:29:16;;;;;;;;;;;;;;;;;;4975068;28;20219;-83
2022/10/17 16:31:42;;;;;;;;;;;;;;;;;;4957840;28;20267;-83
2022/10/17 16:34:08;;;;;;;;;;;;;;;;;;4941567;28;20009;-84
2022/10/17 16:36:37;;;;;;;;;;;;;;;;;;4974929;28;20002;-82